Time;durP1;ratioP1;P1;durP2;ratioP2;P2;SDS_P1;SDS_P2;PMS_P1;PMS_P2;Temp;Humidity;BMP_temperature;BMP_pressure;BME280_temperature;BME280_humidity;BME280_pressure;Samples;Min_cycle;Max_cycle;Signal;HPM_P1;HPM_P2
2022/07/15 00:00:34;;;;;;;6.88;3.05;;;22.50;99.90;;;;;;20986051;28;20087;-77
2022/07/15 00:10:35;;;;;;;9.73;2.65;;;22.40;99.90;;;;;;20875734;22;20144;-76
2022/07/15 00:20:37;;;;;;;6.73;2.50;;;22.20;99.90;;;;;;20816951;28;20096;-76
2022/07/15 00:30:41;;;;;;;6.00;2.67;;;22.00;99.90;;;;;;20833839;28;20420;-78
2022/07/15 00:40:47;;;;;;;8.52;2.78;;;21.80;99.90;;;;;;20814701;28;20045;-77
2022/07/15 00:50:48;;;;;;;4.72;2.25;;;21.70;99.90;;;;;;20832461;28;20045;-77
2022/07/15 01:00:50;;;;;;;6.43;2.17;;;21.70;99.90;;;;;;20832719;28;20493;-77
2022/07/15 01:10:52;;;;;;;4.10;2.25;;;21.60;99.90;;;;;;20813459;28;20072;-76
2022/07/15 01:20:53;;;;;;;4.03;2.25;;;21.50;99.90;;;;;;20811613;28;20041;-76
2022/07/15 01:30:54;;;;;;;5.10;2.13;;;21.30;99.90;;;;;;20830850;28;20068;-78
2022/07/15 01:40:55;;;;;;;;;;;21.40;99.90;;;;;;20847374;28;20056;-77
2022/07/15 01:50:58;;;;;;;3.13;1.92;;;21.40;99.90;;;;;;20829867;28;19909;-77
2022/07/15 02:00:59;;;;;;;4.97;2.38;;;21.20;99.90;;;;;;20812570;28;20038;-77
2022/07/15 02:11:00;;;;;;;7.85;2.63;;;21.10;99.90;;;;;;20829241;28;20599;-77
2022/07/15 02:21:02;;;;;;;4.10;2.30;;;20.80;99.90;;;;;;20825427;28;20045;-78
2022/07/15 02:31:03;;;;;;;3.78;2.17;;;20.50;99.90;;;;;;20823978;28;20049;-77
2022/07/15 02:41:11;;;;;;;5.70;2.40;;;20.20;99.90;;;;;;20806598;28;20045;-76
2022/07/15 02:51:14;;;;;;;6.85;2.22;;;20.00;99.90;;;;;;20820945;28;20033;-76
2022/07/15 03:01:15;;;;;;;5.75;2.40;;;19.90;99.90;;;;;;20822210;28;20052;-76
2022/07/15 03:11:16;;;;;;;3.70;1.93;;;20.00;99.90;;;;;;20805372;28;20056;-77
2022/07/15 03:21:19;;;;;;;5.35;2.30;;;19.80;99.90;;;;;;20821120;28;20042;-78
2022/07/15 03:31:23;;;;;;;9.55;2.38;;;19.80;99.90;;;;;;20803505;28;20041;-77
2022/07/15 03:41:24;;;;;;;9.53;2.37;;;19.60;99.90;;;;;;20811129;28;20041;-77
2022/07/15 03:51:25;;;;;;;3.53;1.90;;;19.70;99.90;;;;;;20821012;28;20048;-77
2022/07/15 04:01:26;;;;;;;6.03;2.20;;;19.50;99.90;;;;;;20817344;28;20037;-77
2022/07/15 04:11:30;;;;;;;6.18;2.15;;;19.20;99.90;;;;;;20858140;28;20546;-76
2022/07/15 04:21:31;;;;;;;5.87;2.20;;;18.60;99.90;;;;;;20892762;28;20064;-77
2022/07/15 04:31:32;;;;;;;2.43;1.90;;;18.50;99.90;;;;;;20914145;28;20560;-76
2022/07/15 04:41:42;;;;;;;4.55;2.28;;;18.70;99.90;;;;;;20896067;28;20037;-77
2022/07/15 04:51:43;;;;;;;6.50;2.00;;;18.40;99.90;;;;;;20878467;28;20513;-76
2022/07/15 05:01:44;;;;;;;5.83;2.47;;;18.50;99.90;;;;;;20894320;28;20044;-76
2022/07/15 05:11:49;;;;;;;5.13;2.22;;;18.80;99.90;;;;;;20900467;28;20052;-78
2022/07/15 05:21:50;;;;;;;8.37;2.30;;;18.80;99.90;;;;;;20923488;28;20047;-77
2022/07/15 05:31:51;;;;;;;9.10;2.70;;;19.40;99.90;;;;;;20919704;28;20386;-76
2022/07/15 05:41:52;;;;;;;5.20;2.93;;;19.50;99.90;;;;;;20922485;28;20033;-75
2022/07/15 05:51:52;;;;;;;11.77;2.90;;;19.60;99.90;;;;;;20942451;28;20033;-76
2022/07/15 06:01:53;;;;;;;16.70;3.20;;;19.80;99.90;;;;;;20938672;28;20033;-78
2022/07/15 06:11:54;;;;;;;12.40;3.10;;;20.00;99.90;;;;;;20863633;23;20057;-75
2022/07/15 06:21:55;;;;;;;8.90;3.13;;;20.50;99.90;;;;;;20839219;28;20576;-75
2022/07/15 06:31:59;;;;;;;8.93;2.75;;;20.80;99.90;;;;;;20851344;28;20107;-75
2022/07/15 06:42:01;;;;;;;4.20;2.40;;;21.40;99.90;;;;;;20834947;28;20037;-75
2022/07/15 06:52:02;;;;;;;6.38;2.75;;;21.60;99.90;;;;;;20833460;28;20048;-74
2022/07/15 07:02:03;;;;;;;7.35;2.55;;;22.00;99.90;;;;;;20832786;28;20041;-74
2022/07/15 07:12:05;;;;;;;6.83;3.10;;;22.50;99.90;;;;;;20833457;28;20045;-75
2022/07/15 07:22:06;;;;;;;3.05;2.20;;;23.30;99.90;;;;;;20834030;28;20045;-75
2022/07/15 07:32:07;;;;;;;4.80;2.08;;;23.00;99.90;;;;;;20833259;28;20490;-75
2022/07/15 07:42:08;;;;;;;4.93;2.10;;;23.80;99.90;;;;;;20833271;28;20084;-75
2022/07/15 07:52:08;;;;;;;;;;;24.10;99.90;;;;;;20832054;28;20060;-74
2022/07/15 08:02:09;;;;;;;5.83;1.80;;;24.10;99.90;;;;;;20828660;28;19948;-75
2022/07/15 08:12:10;;;;;;;;;;;25.30;99.00;;;;;;20829358;28;20280;-75
2022/07/15 08:22:11;;;;;;;6.43;2.80;;;26.10;98.30;;;;;;20827882;28;19913;-75
2022/07/15 08:32:12;;;;;;;6.38;2.10;;;26.60;98.10;;;;;;20827104;28;20113;-75
2022/07/15 08:42:15;;;;;;;5.82;2.30;;;26.90;97.10;;;;;;20826125;28;20040;-75
2022/07/15 08:52:17;;;;;;;6.15;2.10;;;27.10;96.30;;;;;;20826714;28;20037;-75
2022/07/15 09:02:19;;;;;;;2.40;1.80;;;27.20;96.60;;;;;;20825175;28;20111;-75
2022/07/15 09:12:20;;;;;;;5.97;2.20;;;27.80;96.10;;;;;;20824616;28;20111;-76
2022/07/15 09:22:21;;;;;;;5.70;1.88;;;27.40;96.40;;;;;;20824936;28;20042;-76
2022/07/15 09:43:04;;;;;;;4.15;2.13;;;28.70;94.60;;;;;;20823975;28;20069;-76
2022/07/15 09:53:13;;;;;;;5.47;2.30;;;27.40;95.30;;;;;;20827659;28;20128;-76
2022/07/15 10:03:16;;;;;;;3.88;2.00;;;28.80;94.20;;;;;;20838118;28;20080;-76
2022/07/15 10:13:30;;;;;;;7.57;1.77;;;28.60;94.90;;;;;;20831993;28;20501;-76
2022/07/15 10:23:59;;;;;;;5.03;2.88;;;29.40;93.70;;;;;;20832073;28;20099;-76
2022/07/15 10:34:02;;;;;;;8.38;2.13;;;28.20;94.50;;;;;;20831525;28;20427;-76
2022/07/15 10:44:10;;;;;;;8.40;2.25;;;29.80;94.20;;;;;;20831253;28;20111;-76
2022/07/15 10:54:31;;;;;;;7.47;3.22;;;29.30;94.80;;;;;;20830305;28;20132;-76
2022/07/15 11:04:33;;;;;;;7.70;3.07;;;28.60;96.50;;;;;;20778203;28;1442093;-76
2022/07/15 11:14:46;;;;;;;6.38;2.65;;;29.60;95.40;;;;;;20833729;28;20509;-76
2022/07/15 11:24:48;;;;;;;7.25;2.80;;;28.60;95.90;;;;;;20833194;28;20083;-75
2022/07/15 11:34:51;;;;;;;4.95;2.53;;;28.70;96.20;;;;;;20832220;28;20048;-76
2022/07/15 11:44:52;;;;;;;8.20;2.97;;;29.60;94.30;;;;;;20830953;28;20041;-76
2022/07/15 11:54:54;;;;;;;7.03;2.80;;;29.70;94.90;;;;;;20831514;28;20537;-76
2022/07/15 12:05:04;;;;;;;6.68;3.05;;;29.70;95.20;;;;;;20864773;22;20049;-78
2022/07/15 12:15:05;;;;;;;4.70;2.63;;;30.20;90.80;;;;;;20834976;28;20049;-77
2022/07/15 12:25:17;;;;;;;4.63;2.70;;;30.70;90.70;;;;;;20840029;28;20038;-78
2022/07/15 12:35:20;;;;;;;5.03;2.38;;;31.40;88.90;;;;;;20876240;28;20090;-77
2022/07/15 12:45:24;;;;;;;4.00;2.20;;;31.70;84.00;;;;;;20904071;28;20126;-76
2022/07/15 12:55:28;;;;;;;5.93;2.30;;;29.90;91.50;;;;;;20903225;28;20127;-77
2022/07/15 13:05:42;;;;;;;7.28;2.05;;;29.80;91.40;;;;;;20877336;28;20048;-77
2022/07/15 13:15:44;;;;;;;4.05;2.78;;;29.90;90.10;;;;;;20888319;28;20060;-76
2022/07/15 13:25:47;;;;;;;5.80;2.40;;;29.70;87.10;;;;;;20897261;28;20044;-77
2022/07/15 13:35:48;;;;;;;6.57;2.10;;;31.10;87.10;;;;;;20926129;28;20049;-78
2022/07/15 13:45:49;;;;;;;2.40;1.55;;;30.40;80.50;;;;;;20940979;28;20041;-78
2022/07/15 13:55:50;;;;;;;3.08;1.88;;;30.90;77.80;;;;;;20945990;28;20033;-79
2022/07/15 14:05:51;;;;;;;5.55;1.83;;;30.80;80.50;;;;;;20939913;28;20435;-78
2022/07/15 14:15:52;;;;;;;3.92;2.15;;;30.70;79.70;;;;;;20936006;28;20082;-77
2022/07/15 14:25:53;;;;;;;4.65;1.85;;;29.70;80.50;;;;;;20929151;28;20041;-77
2022/07/15 14:35:53;;;;;;;5.53;1.95;;;29.40;77.90;;;;;;20920562;28;20041;-79
2022/07/15 14:45:54;;;;;;;6.88;1.77;;;30.20;82.00;;;;;;20930324;28;20045;-77
2022/07/15 14:55:55;;;;;;;4.57;1.60;;;30.50;81.50;;;;;;20925221;28;20080;-78
2022/07/15 15:05:56;;;;;;;4.10;1.75;;;29.40;78.20;;;;;;20939963;28;20083;-77
2022/07/15 15:15:58;;;;;;;2.95;2.03;;;29.60;80.90;;;;;;20928353;28;20111;-77
2022/07/15 15:36:19;;;;;;;6.72;2.00;;;30.00;82.10;;;;;;20939507;28;20444;-77
2022/07/15 15:46:20;;;;;;;2.85;1.95;;;29.40;86.10;;;;;;20944629;28;20044;-77
2022/07/15 15:56:21;;;;;;;3.13;1.73;;;29.30;86.10;;;;;;20934980;28;20418;-77
2022/07/15 16:06:22;;;;;;;3.95;1.75;;;29.20;84.10;;;;;;20927732;28;20583;-77
2022/07/15 16:16:22;;;;;;;4.70;1.50;;;29.10;85.00;;;;;;20926086;28;20037;-76
2022/07/15 16:26:23;;;;;;;3.72;1.50;;;28.90;85.10;;;;;;20913754;28;20048;-76
2022/07/15 16:36:24;;;;;;;2.88;1.60;;;28.70;83.40;;;;;;20912548;28;20040;-77
2022/07/15 16:46:25;;;;;;;4.30;1.63;;;28.60;86.70;;;;;;20915365;28;20049;-76
2022/07/15 16:56:26;;;;;;;4.75;1.80;;;28.50;88.10;;;;;;20915846;28;20064;-77
2022/07/15 17:06:27;;;;;;;7.00;2.35;;;28.40;88.90;;;;;;20915407;28;20067;-77
2022/07/15 17:16:28;;;;;;;8.50;2.40;;;28.00;90.30;;;;;;20914386;28;20041;-76
2022/07/15 17:26:28;;;;;;;6.43;2.25;;;27.60;90.20;;;;;;20921860;28;20060;-76
2022/07/15 17:36:30;;;;;;;4.55;2.10;;;27.40;91.00;;;;;;20909049;28;20037;-76
2022/07/15 17:46:31;;;;;;;5.95;2.40;;;27.40;91.10;;;;;;20904631;28;20124;-76
2022/07/15 17:56:32;;;;;;;7.07;2.55;;;27.30;91.40;;;;;;20905127;28;20033;-75
2022/07/15 18:06:32;;;;;;;4.03;1.98;;;27.20;92.10;;;;;;20889125;22;20042;-79
2022/07/15 18:16:33;;;;;;;3.47;2.20;;;27.90;91.30;;;;;;20759676;28;20109;-82
2022/07/15 18:26:35;;;;;;;2.95;1.90;;;27.80;91.70;;;;;;20722958;28;20050;-80
2022/07/15 18:36:36;;;;;;;5.50;2.63;;;26.60;93.30;;;;;;20736487;28;20045;-80
2022/07/15 18:46:36;;;;;;;;;;;25.90;95.00;;;;;;20754896;28;20112;-80
2022/07/15 18:56:37;;;;;;;13.20;3.37;;;25.10;95.20;;;;;;20736933;28;20317;-81
2022/07/15 19:06:38;;;;;;;5.13;2.30;;;24.50;97.00;;;;;;20735639;28;20046;-82
2022/07/15 19:16:38;;;;;;;6.07;2.47;;;23.80;96.70;;;;;;20728309;28;20477;-79
2022/07/15 19:26:39;;;;;;;3.50;2.40;;;23.50;96.60;;;;;;20762690;28;20050;-79
2022/07/15 19:36:40;;;;;;;4.07;2.50;;;23.20;97.00;;;;;;20763657;28;20045;-79
2022/07/15 19:46:43;;;;;;;3.63;2.00;;;22.90;97.00;;;;;;20764355;28;20037;-79
2022/07/15 19:56:44;;;;;;;5.82;2.40;;;22.90;96.50;;;;;;20748846;28;20042;-79
2022/07/15 20:06:46;;;;;;;3.10;2.13;;;22.70;97.00;;;;;;20756947;28;20103;-79
2022/07/15 20:16:47;;;;;;;6.93;3.03;;;22.50;97.30;;;;;;20749081;28;20044;-80
2022/07/15 20:26:47;;;;;;;7.40;2.57;;;22.40;97.70;;;;;;20750950;28;20050;-78
2022/07/15 20:36:48;;;;;;;4.90;2.43;;;22.40;98.20;;;;;;20769474;28;20038;-79
2022/07/15 20:46:51;;;;;;;9.00;2.75;;;22.30;98.90;;;;;;20771222;28;20657;-78
2022/07/15 20:56:52;;;;;;;7.05;2.75;;;21.80;99.90;;;;;;20776722;28;20038;-80
2022/07/15 21:06:53;;;;;;;6.93;2.70;;;21.50;99.90;;;;;;20768319;28;20044;-79
2022/07/15 21:16:53;;;;;;;7.10;2.73;;;20.60;99.90;;;;;;20757643;28;20105;-78
2022/07/15 21:26:54;;;;;;;4.73;2.23;;;19.90;99.90;;;;;;20727392;28;20037;-78
2022/07/15 21:36:55;;;;;;;4.13;2.33;;;19.40;99.90;;;;;;20747540;28;20025;-79
2022/07/15 21:46:56;;;;;;;6.43;2.83;;;19.30;99.90;;;;;;20750566;28;20042;-79
2022/07/15 21:56:58;;;;;;;5.35;2.85;;;19.10;99.90;;;;;;20778751;28;20077;-79
2022/07/15 22:06:58;;;;;;;4.53;2.97;;;18.80;99.90;;;;;;20778577;28;20072;-78
2022/07/15 22:16:59;;;;;;;6.73;2.70;;;18.50;99.90;;;;;;20774324;28;20050;-77
2022/07/15 22:27:00;;;;;;;8.00;3.83;;;18.30;99.90;;;;;;20788963;28;20570;-77
2022/07/15 22:37:01;;;;;;;7.37;3.00;;;18.80;99.90;;;;;;20778512;28;20041;-80
2022/07/15 22:47:04;;;;;;;7.20;2.73;;;17.60;99.90;;;;;;20780888;28;20042;-81
2022/07/15 22:57:04;;;;;;;7.28;2.97;;;17.70;99.90;;;;;;20785171;28;20128;-81
2022/07/15 23:07:05;;;;;;;5.27;2.67;;;17.80;99.90;;;;;;20734801;28;20116;-79
2022/07/15 23:17:06;;;;;;;4.63;2.87;;;17.30;99.90;;;;;;20775187;28;20065;-79
2022/07/15 23:27:07;;;;;;;5.43;2.90;;;17.00;99.90;;;;;;20822686;28;20041;-78
2022/07/15 23:37:08;;;;;;;4.80;2.60;;;17.50;99.90;;;;;;20766321;28;20040;-80
2022/07/15 23:47:09;;;;;;;8.93;3.00;;;17.30;99.90;;;;;;20749013;28;20049;-80
2022/07/15 23:57:09;;;;;;;3.83;2.60;;;16.90;99.90;;;;;;20751035;28;20070;-80
